createdAt,value
2019-04-26T11:43:02.789Z,2.50
2019-04-26T11:48:05.372Z,2.87
2019-04-26T11:53:10.148Z,2.37
2019-04-26T11:58:09.697Z,2.17
2019-04-26T12:03:10.855Z,2.40
2019-04-26T12:08:16.452Z,2.40
2019-04-26T12:13:17.365Z,2.43
2019-04-26T12:18:18.378Z,2.33
2019-04-26T12:23:21.483Z,2.30
2019-04-26T12:28:22.067Z,2.53
2019-04-26T12:33:22.952Z,2.50
2019-04-26T12:38:24.182Z,2.60
2019-04-26T12:43:26.717Z,1.87
2019-04-26T12:48:28.398Z,2.13
2019-04-26T12:53:31.318Z,2.60
2019-04-26T12:58:32.196Z,2.70
2019-04-26T13:03:33.163Z,2.83
2019-04-26T13:08:34.038Z,2.60
2019-04-26T13:13:39.749Z,3.10
2019-04-26T13:18:41.112Z,2.40
2019-04-26T13:23:43.711Z,2.37
2019-04-26T13:28:44.584Z,2.60
2019-04-26T13:33:45.481Z,2.63
2019-04-26T13:38:46.461Z,2.63
2019-04-26T13:43:47.333Z,2.50
2019-04-26T13:48:50.108Z,2.40
2019-04-26T13:53:51.080Z,2.17
2019-04-26T13:58:54.373Z,2.03
2019-04-26T14:03:54.775Z,1.87
2019-04-26T14:08:58.155Z,1.77
2019-04-26T14:13:59.951Z,1.60
2019-04-26T14:19:01.700Z,1.90
2019-04-26T14:24:07.651Z,2.07
2019-04-26T14:29:08.626Z,2.00
2019-04-26T14:34:11.930Z,1.60
2019-04-26T14:39:14.931Z,1.53
2019-04-26T14:44:16.161Z,1.53
2019-04-26T14:49:19.163Z,1.70
2019-04-26T14:54:20.344Z,1.73
2019-04-26T14:59:44.420Z,1.83
2019-04-26T15:04:47.688Z,2.80
2019-04-26T15:09:48.551Z,2.40
2019-04-26T15:14:53.234Z,2.93
2019-04-26T15:19:53.571Z,2.50
2019-04-26T15:24:54.883Z,3.13
2019-04-26T15:29:57.280Z,3.10
2019-04-26T15:34:58.907Z,3.20
2019-04-26T15:40:03.146Z,2.57
2019-04-26T15:45:07.237Z,2.27
2019-04-26T15:50:11.011Z,1.73
2019-04-26T15:55:13.331Z,1.50
2019-04-26T16:00:14.692Z,1.60
2019-04-26T16:05:16.731Z,1.07
2019-04-26T16:10:17.812Z,0.90
2019-04-26T16:15:18.680Z,1.40
2019-04-26T16:20:19.576Z,1.00
2019-04-26T16:25:20.437Z,0.70
2019-04-26T16:30:42.838Z,0.80
2019-04-26T16:35:45.216Z,0.90
2019-04-26T16:40:50.437Z,0.70
2019-04-26T16:45:48.872Z,0.60
2019-04-26T16:50:49.864Z,0.60
2019-04-26T16:55:53.274Z,0.87
2019-04-26T17:00:57.919Z,0.70
2019-04-26T17:06:06.727Z,0.63
2019-04-26T17:11:04.429Z,0.50
2019-04-26T17:16:05.764Z,0.60
2019-04-26T17:21:06.851Z,0.70
2019-04-26T17:26:13.757Z,0.63
2019-04-26T17:31:15.731Z,0.70
2019-04-26T17:36:17.302Z,0.60
2019-04-26T17:41:20.063Z,0.60
2019-04-26T17:46:22.302Z,0.67
2019-04-26T17:51:24.140Z,0.60
2019-04-26T17:56:26.064Z,0.63
2019-04-26T18:01:42.862Z,0.40
2019-04-26T18:06:32.453Z,0.77
2019-04-26T18:11:33.670Z,0.60
2019-04-26T18:16:38.006Z,0.60
2019-04-26T18:21:43.765Z,0.40
2019-04-26T18:26:47.055Z,0.40
2019-04-26T18:31:49.798Z,0.50
2019-04-26T18:36:50.713Z,0.50
2019-04-26T18:41:51.581Z,0.50
2019-04-26T18:46:57.345Z,0.60
2019-04-26T18:51:58.242Z,0.50
2019-04-26T18:57:00.608Z,0.57
2019-04-26T19:02:01.796Z,0.57
2019-04-26T19:07:02.763Z,0.40
2019-04-26T19:12:04.296Z,0.60
2019-04-26T19:17:26.054Z,0.63
2019-04-26T19:22:26.787Z,0.50
2019-04-26T19:27:27.776Z,0.50
2019-04-26T19:32:28.636Z,0.60
2019-04-26T19:37:30.383Z,0.47
2019-04-26T19:42:32.543Z,0.30
2019-04-26T19:47:43.899Z,0.60
2019-04-26T19:52:46.142Z,0.50
2019-04-26T19:58:09.651Z,0.60
2019-04-26T20:03:13.387Z,0.57
2019-04-26T20:08:13.040Z,0.40
2019-04-26T20:13:16.222Z,0.57
2019-04-26T20:18:17.661Z,0.50
2019-04-26T20:23:19.641Z,0.50
2019-04-26T20:28:22.661Z,0.60
2019-04-26T20:33:26.618Z,0.57
2019-04-26T20:38:26.778Z,0.80
2019-04-26T20:43:27.675Z,0.60
2019-04-26T20:48:30.105Z,0.60
2019-04-26T20:53:40.008Z,0.53
2019-04-26T20:58:37.614Z,0.60
2019-04-26T21:03:44.609Z,0.60
2019-04-26T21:08:42.423Z,0.53
2019-04-26T21:13:43.635Z,0.67
2019-04-26T21:18:44.641Z,0.43
2019-04-26T21:23:47.583Z,0.60
2019-04-26T21:28:54.220Z,0.50
2019-04-26T21:34:07.867Z,0.57
2019-04-26T21:39:17.061Z,0.50
2019-04-26T21:44:18.468Z,0.60
2019-04-26T21:49:20.898Z,0.70
2019-04-26T22:04:54.818Z,0.90
2019-04-26T22:10:14.398Z,0.60
2019-04-26T22:15:20.434Z,0.50
2019-04-26T22:20:23.418Z,0.60
2019-04-26T22:25:26.319Z,0.50
2019-04-26T22:30:29.701Z,0.60
2019-04-26T22:35:31.256Z,0.63
2019-04-26T22:40:33.520Z,0.70
2019-04-26T22:45:54.370Z,0.70
2019-04-26T22:50:58.377Z,0.50
2019-04-26T22:56:01.376Z,0.70
